createdAt,value
2023-03-01T00:06:39.472Z,93.11
2023-03-01T00:16:43.360Z,94.61
2023-03-01T00:26:45.623Z,95.92
2023-03-01T00:36:52.580Z,96.23
2023-03-01T00:46:56.862Z,96.29
2023-03-01T00:57:01.245Z,97.14
2023-03-01T01:07:03.324Z,98.27
2023-03-01T01:17:06.090Z,98.33
2023-03-01T01:27:11.500Z,98.00
2023-03-01T01:37:18.617Z,98.13
2023-03-01T01:47:25.699Z,98.40
2023-03-01T01:57:35.977Z,99.37
2023-03-01T02:07:41.224Z,100.00
2023-03-01T02:17:45.886Z,100.00
2023-03-01T02:28:06.741Z,100.00
2023-03-01T02:38:12.127Z,100.00
2023-03-01T02:48:15.560Z,100.00
2023-03-01T02:58:18.957Z,100.00
2023-03-01T03:08:25.509Z,100.00
2023-03-01T03:18:29.173Z,100.00
2023-03-01T03:28:32.941Z,100.00
2023-03-01T03:38:36.548Z,100.00
2023-03-01T03:48:41.425Z,99.95
2023-03-01T03:58:46.772Z,100.00
2023-03-01T04:09:01.170Z,100.00
2023-03-01T04:19:07.893Z,100.00
2023-03-01T04:29:10.081Z,100.00
2023-03-01T04:39:14.914Z,100.00
2023-03-01T04:49:19.400Z,100.00
2023-03-01T04:59:26.665Z,100.00
2023-03-01T05:09:33.298Z,100.00
2023-03-01T05:19:43.816Z,100.00
2023-03-01T05:29:46.009Z,100.00
2023-03-01T05:39:52.898Z,100.00
2023-03-01T05:49:57.402Z,100.00
2023-03-01T05:59:59.571Z,100.00
2023-03-01T06:10:11.509Z,100.00
2023-03-01T06:20:22.825Z,98.58
2023-03-01T06:30:28.468Z,94.46
2023-03-01T06:40:32.370Z,88.63
2023-03-01T06:50:39.026Z,82.97
2023-03-01T07:00:44.662Z,78.07
2023-03-01T07:10:46.762Z,73.92
2023-03-01T07:20:53.738Z,71.76
2023-03-01T07:30:56.306Z,68.72
2023-03-01T07:41:03.071Z,66.56
2023-03-01T07:51:06.687Z,65.28
2023-03-01T08:01:11.231Z,62.26
2023-03-01T08:11:15.322Z,60.88
2023-03-01T08:21:19.210Z,59.93
2023-03-01T08:31:28.719Z,60.05
2023-03-01T08:41:31.194Z,60.56
2023-03-01T08:51:37.793Z,61.40
2023-03-01T09:01:44.396Z,60.93
2023-03-01T09:11:52.026Z,61.72
2023-03-01T09:21:57.947Z,62.25
2023-03-01T09:32:02.597Z,62.63
2023-03-01T09:42:09.591Z,63.10
2023-03-01T09:52:22.126Z,63.86
2023-03-01T10:02:33.043Z,66.29
2023-03-01T10:12:41.379Z,66.46
2023-03-01T10:22:52.776Z,66.12
2023-03-01T10:32:58.487Z,68.48
2023-03-01T10:43:07.245Z,68.22
2023-03-01T10:53:35.035Z,68.95
2023-03-01T11:03:39.679Z,68.85
2023-03-01T11:14:19.447Z,69.15
2023-03-01T11:24:38.314Z,69.22
2023-03-01T11:34:54.722Z,69.14
2023-03-01T11:45:01.167Z,70.19
2023-03-01T11:55:08.693Z,70.78
2023-03-01T12:05:38.897Z,71.07
2023-03-01T12:15:59.954Z,70.30
2023-03-01T12:26:05.168Z,70.50
2023-03-01T12:36:33.100Z,70.08
2023-03-01T12:46:46.606Z,70.00
2023-03-01T12:56:53.829Z,69.25
2023-03-01T13:07:25.976Z,69.59
2023-03-01T13:17:33.929Z,71.59
2023-03-01T13:27:36.126Z,71.61
2023-03-01T13:37:39.139Z,71.53
2023-03-01T13:47:43.645Z,72.18
2023-03-01T13:57:54.938Z,71.78
2023-03-01T14:07:57.166Z,71.74
2023-03-01T14:18:15.273Z,73.15
2023-03-01T14:28:21.502Z,72.81
2023-03-01T14:38:25.331Z,74.66
2023-03-01T14:48:28.519Z,74.98
2023-03-01T14:58:35.085Z,76.36
2023-03-01T15:08:42.075Z,77.49
2023-03-01T15:18:52.617Z,78.45
2023-03-01T15:28:59.246Z,79.49
2023-03-01T15:39:07.382Z,81.55
2023-03-01T15:49:54.081Z,83.63
2023-03-01T16:00:01.423Z,83.85
2023-03-01T16:10:13.267Z,84.32
2023-03-01T16:20:28.596Z,84.48
2023-03-01T16:30:37.065Z,84.94
2023-03-01T16:40:41.896Z,85.52
2023-03-01T16:50:44.071Z,86.08
2023-03-01T17:00:46.121Z,87.87
2023-03-01T17:10:48.215Z,88.65
2023-03-01T17:20:50.417Z,90.62
2023-03-01T17:30:57.832Z,91.37
2023-03-01T17:41:02.434Z,92.69
2023-03-01T17:51:09.958Z,94.03
2023-03-01T18:01:17.891Z,96.15
2023-03-01T18:11:23.982Z,97.66
2023-03-01T18:21:26.469Z,99.55
2023-03-01T18:31:33.695Z,100.00
2023-03-01T18:41:38.606Z,100.00
2023-03-01T18:51:45.725Z,100.00
2023-03-01T19:01:47.922Z,100.00
2023-03-01T19:11:59.523Z,100.00
2023-03-01T19:22:06.326Z,100.00
2023-03-01T19:32:10.571Z,100.00
2023-03-01T19:42:15.853Z,100.00
2023-03-01T19:52:20.512Z,100.00
2023-03-01T20:02:28.448Z,100.00
2023-03-01T20:12:31.284Z,100.00
2023-03-01T20:22:35.860Z,100.00
2023-03-01T20:32:41.617Z,100.00
2023-03-01T20:42:43.824Z,100.00
2023-03-01T20:52:47.958Z,100.00
2023-03-01T21:02:53.644Z,100.00
2023-03-01T21:12:58.217Z,100.00
2023-03-01T21:23:00.322Z,100.00
2023-03-01T21:33:04.963Z,100.00
2023-03-01T21:43:07.121Z,100.00
2023-03-01T21:53:15.635Z,100.00
2023-03-01T22:03:17.907Z,100.00
2023-03-01T22:13:23.138Z,100.00
2023-03-01T22:23:25.365Z,100.00
2023-03-01T22:33:27.495Z,100.00
2023-03-01T22:43:31.294Z,100.00
2023-03-01T22:53:35.443Z,100.00
2023-03-01T23:03:42.848Z,100.00
2023-03-01T23:13:47.924Z,100.00
2023-03-01T23:23:55.018Z,100.00
2023-03-01T23:33:57.720Z,100.00
2023-03-01T23:44:04.316Z,100.00
2023-03-01T23:54:11.511Z,100.00
